Time;durP1;ratioP1;P1;durP2;ratioP2;P2;SDS_P1;SDS_P2;PMS_P1;PMS_P2;Temp;Humidity;BMP_temperature;BMP_pressure;BME280_temperature;BME280_humidity;BME280_pressure;Samples;Min_cycle;Max_cycle;Signal;HPM_P1;HPM_P2
2023/02/01 00:01:44;;;;;;;6.50;5.40;;;;;;;1.51;100.00;98794.57;103883;1282;70060;-67
2023/02/01 00:04:13;;;;;;;6.50;5.90;;;;;;;1.52;100.00;98790.76;103927;1267;71670;-66
2023/02/01 00:06:43;;;;;;;11.20;5.80;;;;;;;1.52;100.00;98786.63;103897;1263;61905;-66
2023/02/01 00:09:12;;;;;;;7.40;5.70;;;;;;;1.51;100.00;98784.58;103960;1264;60077;-67
2023/02/01 00:11:40;;;;;;;7.10;5.20;;;;;;;1.50;100.00;98782.35;103920;1266;71074;-68
2023/02/01 00:14:09;;;;;;;7.30;5.10;;;;;;;1.49;100.00;98777.54;104026;1263;69651;-66
2023/02/01 00:16:37;;;;;;;9.10;5.90;;;;;;;1.49;100.00;98776.84;103916;1264;72361;-68
2023/02/01 00:19:13;;;;;;;7.20;5.30;;;;;;;1.49;100.00;98779.27;103919;1284;60277;-66
2023/02/01 00:21:42;;;;;;;9.20;5.60;;;;;;;1.51;100.00;98776.80;104260;1257;59790;-67
2023/02/01 00:24:11;;;;;;;8.20;5.90;;;;;;;1.50;100.00;98777.16;104426;1272;72114;-67
2023/02/01 00:26:41;;;;;;;7.50;6.70;;;;;;;1.45;100.00;98773.30;104299;1256;69117;-67
2023/02/01 00:29:18;;;;;;;8.70;6.40;;;;;;;1.45;100.00;98777.77;104808;1257;72139;-67
2023/02/01 00:31:46;;;;;;;9.50;5.50;;;;;;;1.40;100.00;98771.48;104339;1259;61327;-67
2023/02/01 00:34:15;;;;;;;7.90;5.60;;;;;;;1.39;100.00;98776.86;104351;1254;59757;-67
2023/02/01 00:36:44;;;;;;;8.50;5.60;;;;;;;1.42;100.00;98775.77;104360;1259;73124;-67
2023/02/01 00:39:13;;;;;;;8.10;5.50;;;;;;;1.46;100.00;98773.45;104335;1257;69061;-67
2023/02/01 00:41:41;;;;;;;9.40;5.90;;;;;;;1.52;100.00;98771.23;104356;1270;72803;-67
2023/02/01 00:44:10;;;;;;;7.60;5.80;;;;;;;1.54;100.00;98771.73;104327;1259;60395;-67
2023/02/01 00:46:38;;;;;;;9.20;6.20;;;;;;;1.54;100.00;98772.94;104474;1259;61025;-68
2023/02/01 00:49:08;;;;;;;8.60;5.60;;;;;;;1.54;100.00;98774.66;104306;1259;73845;-67
2023/02/01 00:51:37;;;;;;;6.80;5.70;;;;;;;1.48;100.00;98772.19;104404;1263;71752;-67
2023/02/01 00:54:05;;;;;;;7.40;4.80;;;;;;;1.42;100.00;98774.73;104222;1265;75718;-67
2023/02/01 00:56:33;;;;;;;9.20;5.30;;;;;;;1.36;100.00;98777.08;104279;1269;61219;-67
2023/02/01 00:59:02;;;;;;;6.10;4.30;;;;;;;1.31;100.00;98777.69;104473;1256;61818;-67
2023/02/01 01:01:30;;;;;;;8.50;5.30;;;;;;;1.31;100.00;98777.88;104215;1259;73456;-67
2023/02/01 01:03:59;;;;;;;5.40;4.90;;;;;;;1.26;100.00;98781.94;104336;1274;69827;-67
2023/02/01 01:06:31;;;;;;;9.80;5.30;;;;;;;1.25;100.00;98785.77;104336;1256;74144;-68
2023/02/01 01:09:01;;;;;;;6.90;5.00;;;;;;;1.23;100.00;98785.45;104215;1259;60978;-67
2023/02/01 01:11:31;;;;;;;7.50;4.90;;;;;;;1.16;100.00;98787.13;104456;1259;61294;-68
2023/02/01 01:13:59;;;;;;;7.70;5.60;;;;;;;1.10;100.00;98785.17;104498;1259;73955;-68
2023/02/01 01:16:29;;;;;;;8.20;5.60;;;;;;;1.07;100.00;98786.09;104276;1261;70866;-67
2023/02/01 01:18:57;;;;;;;7.10;5.40;;;;;;;1.06;100.00;98790.61;104279;1269;74426;-67
2023/02/01 01:21:26;;;;;;;9.10;4.80;;;;;;;1.01;100.00;98791.02;104373;1271;61398;-67
2023/02/01 01:23:54;;;;;;;7.70;5.40;;;;;;;0.99;100.00;98790.71;104340;1259;60758;-67
2023/02/01 01:26:24;;;;;;;7.00;4.90;;;;;;;0.94;100.00;98792.70;104347;1253;73022;-67
2023/02/01 01:28:54;;;;;;;8.60;5.20;;;;;;;0.96;100.00;98794.73;104257;1259;70628;-67
2023/02/01 01:31:23;;;;;;;9.50;5.10;;;;;;;0.94;100.00;98789.77;104388;1257;73384;-67
2023/02/01 01:33:52;;;;;;;6.80;4.90;;;;;;;0.97;100.00;98790.05;104374;1261;61168;-67
2023/02/01 01:36:21;;;;;;;8.40;5.20;;;;;;;1.00;100.00;98790.52;104283;1255;61396;-67
2023/02/01 01:38:49;;;;;;;7.70;5.10;;;;;;;1.02;100.00;98789.81;104288;1259;74340;-68
2023/02/01 01:41:23;;;;;;;7.80;5.20;;;;;;;1.04;100.00;98787.35;104259;1257;70305;-67
2023/02/01 01:43:56;;;;;;;6.80;4.90;;;;;;;1.07;100.00;98787.64;104282;1259;73166;-67
2023/02/01 01:46:34;;;;;;;6.70;4.80;;;;;;;1.08;100.00;98787.80;104321;1255;61231;-67
2023/02/01 01:49:15;;;;;;;8.50;4.90;;;;;;;1.09;100.00;98783.64;104308;1272;60497;-68
2023/02/01 01:51:49;;;;;;;8.10;4.50;;;;;;;1.08;100.00;98781.58;104219;1259;73248;-67
2023/02/01 01:54:22;;;;;;;10.90;6.00;;;;;;;1.05;100.00;98784.05;104388;1258;71266;-67
2023/02/01 01:56:53;;;;;;;8.00;5.70;;;;;;;1.03;100.00;98784.27;104401;1261;74372;-67
2023/02/01 01:59:22;;;;;;;7.70;4.80;;;;;;;1.03;100.00;98780.81;104263;1256;61115;-68
2023/02/01 02:01:51;;;;;;;8.90;5.40;;;;;;;1.05;100.00;98776.48;104271;1259;61004;-67
2023/02/01 02:04:20;;;;;;;6.90;4.90;;;;;;;1.04;100.00;98770.95;104348;1259;74146;-66
2023/02/01 02:06:56;;;;;;;10.00;5.60;;;;;;;1.03;100.00;98767.52;104300;1259;70908;-67
2023/02/01 02:09:24;;;;;;;10.50;5.80;;;;;;;1.04;100.00;98769.74;104177;1268;73849;-67
2023/02/01 02:11:52;;;;;;;8.70;5.00;;;;;;;1.05;100.00;98764.72;104284;1269;61031;-67
2023/02/01 02:14:21;;;;;;;7.10;5.20;;;;;;;1.06;100.00;98764.36;104286;1265;60908;-67
2023/02/01 02:16:59;;;;;;;8.20;5.50;;;;;;;1.07;100.00;98762.60;104325;1259;74148;-67
2023/02/01 02:19:47;;;;;;;;;;;;;;;1.05;100.00;98762.84;104275;1258;70476;-67
2023/02/01 02:22:40;;;;;;;10.40;5.30;;;;;;;1.00;100.00;98761.36;104275;1262;74219;-68
2023/02/01 02:25:23;;;;;;;7.90;5.60;;;;;;;0.93;100.00;98757.51;104224;1267;62453;-67
2023/02/01 02:28:25;;;;;;;7.90;5.60;;;;;;;0.97;100.00;98756.40;104302;1260;60927;-67
2023/02/01 02:31:15;;;;;;;10.30;5.90;;;;;;;1.03;100.00;98752.68;104279;1259;74313;-68
2023/02/01 02:33:44;;;;;;;11.80;5.60;;;;;;;1.04;100.00;98754.91;104287;1275;69951;-68
2023/02/01 02:36:30;;;;;;;8.80;5.90;;;;;;;1.09;100.00;98755.67;104275;1272;74207;-68
2023/02/01 02:39:41;;;;;;;10.50;5.40;;;;;;;1.12;100.00;98755.78;104318;1273;60793;-66
2023/02/01 02:48:48;;;;;;;8.20;5.70;;;;;;;1.20;100.00;98754.27;104325;1260;71087;-66
2023/02/01 03:05:34;;;;;;;8.80;5.60;;;;;;;1.42;100.00;98747.11;104380;1268;72938;-66
2023/02/01 03:08:12;;;;;;;8.60;5.50;;;;;;;1.45;100.00;98743.92;104349;1259;61660;-66
2023/02/01 03:10:44;;;;;;;8.50;5.50;;;;;;;1.52;100.00;98743.27;104332;1264;61525;-67
2023/02/01 03:13:17;;;;;;;11.10;6.00;;;;;;;1.58;100.00;98745.24;104239;1267;73964;-66
2023/02/01 03:16:04;;;;;;;8.70;5.40;;;;;;;1.62;100.00;98741.69;104419;1264;72076;-67
2023/02/01 03:18:38;;;;;;;7.30;5.90;;;;;;;1.66;100.00;98741.43;104326;1255;72956;-66
2023/02/01 03:21:09;;;;;;;9.10;6.00;;;;;;;1.67;100.00;98740.71;104269;1256;61682;-66
2023/02/01 03:23:40;;;;;;;7.70;5.90;;;;;;;1.68;100.00;98740.69;104252;1256;61110;-66
2023/02/01 03:26:10;;;;;;;13.30;6.70;;;;;;;1.65;100.00;98742.81;104403;1259;73148;-67
2023/02/01 03:28:39;;;;;;;9.30;6.40;;;;;;;1.60;100.00;98740.17;104316;1258;70855;-67
2023/02/01 03:31:07;;;;;;;12.10;6.80;;;;;;;1.56;100.00;98740.60;104335;1265;73836;-66
2023/02/01 03:33:36;;;;;;;10.30;6.80;;;;;;;1.53;100.00;98741.88;104376;1250;61788;-67
2023/02/01 03:36:19;;;;;;;12.10;7.80;;;;;;;1.53;100.00;98739.27;104291;1256;60962;-67
2023/02/01 03:39:07;;;;;;;11.10;6.30;;;;;;;1.57;100.00;98737.64;104413;1267;73817;-68
2023/02/01 03:41:49;;;;;;;12.90;6.70;;;;;;;1.61;100.00;98741.38;104330;1256;71984;-68
2023/02/01 03:44:22;;;;;;;9.10;6.10;;;;;;;1.60;100.00;98740.86;104315;1257;72913;-67
2023/02/01 03:47:03;;;;;;;10.10;6.30;;;;;;;1.63;100.00;98739.59;104355;1256;62032;-68
2023/02/01 07:46:43;;;;;;;10.20;5.60;;;;;;;0.81;100.00;98679.71;101519;1292;615365;-68
2023/02/01 07:49:12;;;;;;;10.20;5.60;;;;;;;1.74;100.00;98686.31;103952;1263;61031;-66
2023/02/01 07:51:39;;;;;;;10.50;5.70;;;;;;;2.00;100.00;98678.81;103862;1264;59359;-66
2023/02/01 07:54:06;;;;;;;11.70;6.30;;;;;;;2.19;100.00;98666.59;103708;1265;71494;-65
2023/02/01 07:56:33;;;;;;;10.40;6.00;;;;;;;2.37;100.00;98662.17;103900;1279;71000;-67
2023/02/01 07:59:01;;;;;;;11.70;6.10;;;;;;;2.53;100.00;98660.38;103718;1266;132110;-66
2023/02/01 08:01:28;;;;;;;12.80;8.70;;;;;;;2.69;100.00;98663.08;103874;1282;61000;-66
2023/02/01 08:03:56;;;;;;;12.70;7.90;;;;;;;2.78;100.00;98660.25;103990;1264;59387;-65
2023/02/01 08:06:24;;;;;;;15.90;12.30;;;;;;;2.88;100.00;98658.95;103921;1265;71936;-66
2023/02/01 08:08:52;;;;;;;16.30;9.20;;;;;;;2.98;100.00;98664.54;103896;1266;69971;-67
2023/02/01 08:11:20;;;;;;;24.70;22.20;;;;;;;3.01;100.00;98663.96;103935;1263;72304;-66
2023/02/01 08:13:47;;;;;;;32.70;26.20;;;;;;;2.98;100.00;98665.24;103907;1260;60146;-68
2023/02/01 08:16:15;;;;;;;36.60;32.90;;;;;;;3.00;100.00;98663.29;103912;1260;59887;-66
2023/02/01 08:18:42;;;;;;;24.30;19.70;;;;;;;3.05;100.00;98661.58;103863;1264;72641;-66
2023/02/01 08:21:10;;;;;;;19.70;15.80;;;;;;;3.18;100.00;98662.97;104373;1267;69611;-66
2023/02/01 08:23:38;;;;;;;46.40;31.00;;;;;;;3.20;100.00;98660.31;104230;1260;73288;-66
2023/02/01 08:26:22;;;;;;;32.90;21.50;;;;;;;3.29;100.00;98661.60;104316;1257;59809;-66
2023/02/01 08:28:51;;;;;;;21.80;15.10;;;;;;;3.40;100.00;98660.23;104337;1256;60745;-68
2023/02/01 08:31:20;;;;;;;20.10;14.70;;;;;;;3.58;100.00;98652.60;104391;1257;73575;-67
2023/02/01 08:33:49;;;;;;;63.70;32.30;;;;;;;3.49;100.00;98649.73;104484;1274;70167;-68
2023/02/01 08:36:16;;;;;;;38.20;20.10;;;;;;;3.57;100.00;98647.08;104331;1252;71970;-66
2023/02/01 08:38:43;;;;;;;26.30;16.80;;;;;;;3.60;100.00;98644.93;104277;1274;61277;-67
2023/02/01 08:41:12;;;;;;;18.40;11.80;;;;;;;3.63;100.00;98644.16;104374;1254;59762;-66
2023/02/01 08:43:39;;;;;;;97.60;44.20;;;;;;;3.66;100.00;98638.33;104294;1256;73819;-67
2023/02/01 08:46:07;;;;;;;69.70;31.10;;;;;;;3.76;100.00;98634.20;104358;1257;69546;-68
2023/02/01 08:48:34;;;;;;;42.60;20.60;;;;;;;3.85;100.00;98634.79;104325;1272;72363;-67
2023/02/01 08:51:03;;;;;;;67.60;32.60;;;;;;;3.83;100.00;98629.14;104469;1271;61734;-68
2023/02/01 08:53:30;;;;;;;89.30;40.80;;;;;;;3.97;100.00;98626.77;104395;1256;59338;-68
2023/02/01 08:55:57;;;;;;;49.20;22.70;;;;;;;4.12;100.00;98621.45;104351;1267;73164;-68
2023/02/01 08:58:24;;;;;;;37.90;18.10;;;;;;;4.24;100.00;98614.10;104260;1257;70025;-66
2023/02/01 09:00:51;;;;;;;81.30;35.20;;;;;;;4.34;100.00;98604.05;104294;1252;73688;-67
2023/02/01 09:03:18;;;;;;;45.40;24.90;;;;;;;4.41;100.00;98598.98;104339;1257;62243;-68
2023/02/01 09:05:45;;;;;;;25.30;13.80;;;;;;;4.56;100.00;98593.77;104335;1251;61442;-66
2023/02/01 09:08:18;;;;;;;16.30;9.80;;;;;;;4.67;100.00;98595.80;104315;1254;74120;-66
2023/02/01 09:10:46;;;;;;;34.90;14.50;;;;;;;4.65;100.00;98592.91;104362;1270;70564;-66
2023/02/01 09:13:14;;;;;;;18.20;9.30;;;;;;;4.63;100.00;98588.66;104279;1254;72237;-67
2023/02/01 09:15:41;;;;;;;29.40;16.60;;;;;;;4.58;100.00;98589.50;104398;1254;62265;-67
2023/02/01 09:18:08;;;;;;;38.70;18.60;;;;;;;4.56;100.00;98586.81;104359;1252;59750;-66
2023/02/01 09:20:36;;;;;;;22.60;12.40;;;;;;;4.60;100.00;98584.77;104239;1266;72728;-67
2023/02/01 09:23:06;;;;;;;17.30;9.20;;;;;;;4.63;100.00;98586.75;104526;1255;69100;-66
2023/02/01 09:25:34;;;;;;;16.30;10.20;;;;;;;4.72;100.00;98586.23;104240;1256;72194;-68
2023/02/01 09:28:03;;;;;;;14.60;8.50;;;;;;;4.73;100.00;98582.05;104345;1252;61732;-69
2023/02/01 09:30:30;;;;;;;18.70;10.00;;;;;;;4.73;100.00;98579.61;104423;1254;59697;-68
2023/02/01 09:32:57;;;;;;;14.40;7.60;;;;;;;4.77;100.00;98577.91;104358;1256;71904;-66
2023/02/01 09:35:24;;;;;;;11.60;6.80;;;;;;;4.70;100.00;98576.08;104347;1263;69599;-69
2023/02/01 09:37:53;;;;;;;8.90;5.70;;;;;;;4.71;100.00;98576.23;104659;1253;71694;-68
2023/02/01 09:40:20;;;;;;;6.60;4.90;;;;;;;4.74;100.00;98572.27;104758;1256;61787;-68
2023/02/01 09:42:57;;;;;;;9.10;4.50;;;;;;;4.58;100.00;98569.71;104668;1256;59857;-63
2023/02/01 09:45:33;;;;;;;12.10;5.30;;;;;;;4.34;100.00;98567.25;105192;1256;73439;-62
2023/02/01 09:48:13;;;;;;;9.00;4.70;;;;;;;4.18;100.00;98566.77;104702;1254;69273;-67
2023/02/01 09:50:41;;;;;;;9.40;4.80;;;;;;;4.14;100.00;98563.61;104785;1256;71678;-69
2023/02/01 09:53:27;;;;;;;9.00;4.70;;;;;;;4.21;100.00;98560.26;105042;1257;60987;-68
2023/02/01 09:55:56;;;;;;;10.60;4.50;;;;;;;4.11;100.00;98561.62;104567;1257;59488;-71
2023/02/01 09:58:34;;;;;;;7.50;4.40;;;;;;;4.18;100.00;98559.67;104596;1269;72976;-64
2023/02/01 10:01:02;;;;;;;10.50;4.70;;;;;;;4.19;100.00;98557.21;104462;1270;69981;-63
2023/02/01 10:03:31;;;;;;;6.20;4.10;;;;;;;4.08;100.00;98557.41;104681;1257;72489;-66
2023/02/01 10:06:14;;;;;;;8.10;4.80;;;;;;;4.04;100.00;98555.27;104393;1273;61189;-65
2023/02/01 10:09:03;;;;;;;9.80;5.10;;;;;;;4.02;100.00;98552.55;104696;1255;59756;-60
2023/02/01 10:11:49;;;;;;;8.20;5.10;;;;;;;3.95;100.00;98551.42;104456;1254;72445;-65
2023/02/01 10:14:43;;;;;;;6.20;4.20;;;;;;;3.90;100.00;98537.86;104495;1270;70278;-64
2023/02/01 10:17:29;;;;;;;9.20;4.40;;;;;;;3.81;100.00;98534.55;104324;1255;72148;-63
2023/02/01 10:20:15;;;;;;;8.30;4.60;;;;;;;3.72;100.00;98538.29;104332;1252;60529;-65
2023/02/01 10:22:43;;;;;;;5.80;4.10;;;;;;;3.69;100.00;98534.41;104416;1251;59339;-65
2023/02/01 10:25:37;;;;;;;11.20;4.20;;;;;;;3.65;100.00;98530.55;104343;1274;73603;-66
2023/02/01 10:28:05;;;;;;;8.30;4.20;;;;;;;3.71;100.00;98526.19;104821;1257;69165;-68
2023/02/01 10:30:39;;;;;;;9.50;4.10;;;;;;;3.64;100.00;98531.46;104619;1256;71622;-64
2023/02/01 10:33:28;;;;;;;7.30;4.00;;;;;;;3.60;100.00;98530.54;104661;1255;60439;-67
2023/02/01 10:36:05;;;;;;;7.70;3.80;;;;;;;3.65;100.00;98531.41;104480;1254;61342;-63
2023/02/01 10:38:32;;;;;;;6.00;3.50;;;;;;;3.60;100.00;98530.21;104461;1273;73023;-68
2023/02/01 10:41:10;;;;;;;5.80;3.50;;;;;;;3.62;100.00;98528.39;104373;1264;68452;-70
2023/02/01 10:43:39;;;;;;;7.70;3.60;;;;;;;3.65;100.00;98523.45;104428;1257;71749;-64
2023/02/01 10:46:06;;;;;;;5.90;3.90;;;;;;;3.63;100.00;98525.59;104360;1257;61444;-66
2023/02/01 10:48:34;;;;;;;5.80;3.90;;;;;;;3.62;100.00;98522.51;104403;1269;61864;-68
2023/02/01 10:51:19;;;;;;;5.90;3.90;;;;;;;3.64;100.00;98521.77;104453;1256;72590;-67
2023/02/01 10:53:50;;;;;;;6.20;3.90;;;;;;;3.62;100.00;98522.00;104337;1274;68806;-66
2023/02/01 10:56:25;;;;;;;7.40;4.40;;;;;;;3.58;100.00;98521.77;104326;1265;72355;-66
2023/02/01 10:58:59;;;;;;;6.40;4.60;;;;;;;3.50;100.00;98518.22;104260;1251;60994;-66
2023/02/01 11:01:38;;;;;;;7.90;4.90;;;;;;;3.48;100.00;98518.27;105121;1253;60185;-66
2023/02/01 11:04:13;;;;;;;8.70;4.70;;;;;;;3.42;100.00;98518.66;104838;1256;72305;-63
2023/02/01 11:06:41;;;;;;;7.00;4.70;;;;;;;3.37;100.00;98515.86;104665;1258;70119;-63
2023/02/01 11:09:09;;;;;;;8.60;5.10;;;;;;;3.36;100.00;98511.39;104739;1252;72960;-62
2023/02/01 11:11:48;;;;;;;8.10;4.60;;;;;;;3.42;100.00;98511.70;104697;1253;60308;-63
2023/02/01 11:14:38;;;;;;;9.90;5.10;;;;;;;3.48;100.00;98507.19;104805;1251;59786;-62
2023/02/01 11:17:14;;;;;;;7.80;4.80;;;;;;;3.48;100.00;98503.04;104575;1256;73208;-62
2023/02/01 11:20:06;;;;;;;7.50;4.10;;;;;;;3.51;100.00;98497.73;104539;1256;68551;-62
2023/02/01 11:22:33;;;;;;;7.60;5.60;;;;;;;3.34;100.00;98502.09;104477;1267;72121;-65
2023/02/01 11:25:01;;;;;;;11.20;5.70;;;;;;;3.43;100.00;98496.80;104501;1256;60736;-63
2023/02/01 11:27:28;;;;;;;8.40;5.40;;;;;;;3.49;100.00;98491.39;104301;1274;59714;-63
2023/02/01 11:29:58;;;;;;;8.00;4.70;;;;;;;3.57;100.00;98488.90;104498;1269;73324;-63
2023/02/01 11:32:26;;;;;;;5.60;4.80;;;;;;;3.63;100.00;98491.83;104718;1252;68510;-62
2023/02/01 11:34:57;;;;;;;7.00;5.00;;;;;;;3.71;100.00;98489.10;104392;1266;71613;-62
2023/02/01 11:37:36;;;;;;;10.60;5.20;;;;;;;3.74;100.00;98486.24;104278;1257;60906;-63
2023/02/01 11:40:18;;;;;;;7.10;5.50;;;;;;;3.92;100.00;98482.15;104464;1269;60071;-62
2023/02/01 11:42:58;;;;;;;9.40;5.20;;;;;;;4.03;100.00;98482.29;104596;1256;72448;-63
2023/02/01 11:45:28;;;;;;;8.00;5.40;;;;;;;4.06;100.00;98476.49;104540;1267;69977;-63
2023/02/01 11:47:57;;;;;;;7.10;5.00;;;;;;;4.01;100.00;98475.26;104961;1255;72020;-63
2023/02/01 11:50:32;;;;;;;7.50;5.50;;;;;;;3.94;100.00;98481.22;104573;1254;60937;-63
2023/02/01 11:53:22;;;;;;;9.90;5.40;;;;;;;3.82;100.00;98481.27;104943;1251;60234;-63
2023/02/01 11:56:05;;;;;;;7.40;5.20;;;;;;;3.77;100.00;98470.89;104868;1263;73093;-63
2023/02/01 11:58:47;;;;;;;7.30;5.10;;;;;;;3.77;100.00;98466.23;104987;1255;69663;-63
2023/02/01 12:01:17;;;;;;;7.30;5.70;;;;;;;3.78;100.00;98463.40;104465;1263;71347;-63
2023/02/01 14:09:10;;;;;;;12.20;7.80;;;;;;;1.38;100.00;98461.16;102206;1292;616073;-65
2023/02/01 14:11:53;;;;;;;13.90;8.80;;;;;;;-128.00;-1.00;-1.00;101439;1269;1010596;-64
2023/02/01 14:14:20;;;;;;;11.40;8.70;;;;;;;-128.00;-1.00;-1.00;101007;1266;1014081;-62
2023/02/01 14:16:53;;;;;;;10.90;7.70;;;;;;;-128.00;-1.00;-1.00;101229;1267;1002884;-62
2023/02/01 14:19:24;;;;;;;12.40;8.50;;;;;;;-128.00;-1.00;-1.00;101448;1267;1013287;-62
2023/02/01 14:21:56;;;;;;;10.60;8.20;;;;;;;-128.00;-1.00;-1.00;101245;1267;1016036;-63
2023/02/01 14:24:25;;;;;;;10.30;7.90;;;;;;;-128.00;-1.00;-1.00;102034;1263;1010874;-62
2023/02/01 14:26:52;;;;;;;12.80;7.80;;;;;;;-128.00;-1.00;-1.00;101335;1264;1011619;-65
2023/02/01 14:29:19;;;;;;;;;;;;;;;-128.00;-1.00;-1.00;101375;1263;1002881;-64
2023/02/01 14:31:48;;;;;;;9.60;7.00;;;;;;;-128.00;-1.00;-1.00;101412;1264;1016353;-64
2023/02/01 14:34:26;;;;;;;8.50;6.50;;;;;;;-128.00;-1.00;-1.00;102070;1251;1002392;-64
2023/02/01 14:37:06;;;;;;;7.70;5.40;;;;;;;-128.00;-1.00;-1.00;101922;1251;1012632;-65
2023/02/01 14:39:45;;;;;;;7.00;5.90;;;;;;;-128.00;-1.00;-1.00;101945;1257;1010618;-67
2023/02/01 14:42:42;;;;;;;6.20;5.60;;;;;;;-128.00;-1.00;-1.00;101980;1251;1015780;-67
2023/02/01 14:45:26;;;;;;;7.20;5.30;;;;;;;-128.00;-1.00;-1.00;101988;1251;1012884;-66
2023/02/01 14:48:06;;;;;;;5.70;5.10;;;;;;;-128.00;-1.00;-1.00;101958;1257;1015320;-69
2023/02/01 14:50:33;;;;;;;5.50;5.00;;;;;;;-128.00;-1.00;-1.00;101729;1251;1009835;-67
2023/02/01 14:53:03;;;;;;;6.10;5.10;;;;;;;-128.00;-1.00;-1.00;101957;1251;1003846;-68
2023/02/01 14:55:52;;;;;;;6.00;5.40;;;;;;;-128.00;-1.00;-1.00;101785;1257;1013262;-67
2023/02/01 14:58:41;;;;;;;6.00;5.20;;;;;;;-128.00;-1.00;-1.00;101869;1251;1012901;-65
2023/02/01 15:01:34;;;;;;;5.60;5.10;;;;;;;-128.00;-1.00;-1.00;102036;1251;1013665;-64
2023/02/01 15:04:09;;;;;;;6.20;5.20;;;;;;;-128.00;-1.00;-1.00;102393;1256;1013168;-61
2023/02/01 15:06:45;;;;;;;6.50;4.90;;;;;;;-128.00;-1.00;-1.00;101758;1256;1011210;-67
2023/02/01 15:09:20;;;;;;;5.70;5.20;;;;;;;-128.00;-1.00;-1.00;101982;1251;1013173;-68
2023/02/01 15:12:04;;;;;;;7.70;5.90;;;;;;;-128.00;-1.00;-1.00;101847;1251;1013712;-66
2023/02/01 15:14:37;;;;;;;8.30;4.80;;;;;;;-128.00;-1.00;-1.00;102023;1251;1012820;-64
2023/02/01 15:17:26;;;;;;;7.20;5.80;;;;;;;-128.00;-1.00;-1.00;101875;1251;1010177;-66
2023/02/01 15:19:57;;;;;;;7.30;5.90;;;;;;;-128.00;-1.00;-1.00;101881;1258;1010713;-66
2023/02/01 15:22:24;;;;;;;7.70;6.50;;;;;;;-128.00;-1.00;-1.00;101795;1251;1012939;-66
2023/02/01 15:24:55;;;;;;;8.00;5.90;;;;;;;-128.00;-1.00;-1.00;102000;1256;1004775;-66
2023/02/01 15:27:22;;;;;;;7.30;6.10;;;;;;;-128.00;-1.00;-1.00;102062;1251;1015628;-64
2023/02/01 15:29:49;;;;;;;7.90;7.00;;;;;;;-128.00;-1.00;-1.00;101928;1259;1002882;-65
2023/02/01 15:32:29;;;;;;;8.90;7.00;;;;;;;-128.00;-1.00;-1.00;102353;1253;1003567;-64
2023/02/01 15:34:56;;;;;;;11.30;6.80;;;;;;;-128.00;-1.00;-1.00;102159;1251;1016003;-68
2023/02/01 15:37:23;;;;;;;7.20;6.40;;;;;;;-128.00;-1.00;-1.00;102182;1253;1003028;-67
2023/02/01 15:40:03;;;;;;;9.10;6.50;;;;;;;-128.00;-1.00;-1.00;102935;1251;1003238;-71
2023/02/01 15:42:30;;;;;;;9.00;6.70;;;;;;;-128.00;-1.00;-1.00;102052;1251;1009931;-67
2023/02/01 15:44:57;;;;;;;7.40;6.20;;;;;;;-128.00;-1.00;-1.00;102140;1251;1002433;-65
2023/02/01 15:47:26;;;;;;;9.60;7.00;;;;;;;-128.00;-1.00;-1.00;101804;1252;1003054;-66
2023/02/01 15:49:55;;;;;;;7.10;6.40;;;;;;;-128.00;-1.00;-1.00;102133;1251;1012888;-65
2023/02/01 15:52:30;;;;;;;6.80;6.10;;;;;;;-128.00;-1.00;-1.00;102188;1251;1013406;-65
2023/02/01 15:54:59;;;;;;;7.30;6.30;;;;;;;-128.00;-1.00;-1.00;102293;1253;1010167;-67
2023/02/01 15:57:34;;;;;;;7.50;6.70;;;;;;;-128.00;-1.00;-1.00;102313;1251;1011188;-66
2023/02/01 16:00:04;;;;;;;6.90;6.30;;;;;;;-128.00;-1.00;-1.00;101896;1259;1012900;-64
2023/02/01 16:02:43;;;;;;;8.10;6.10;;;;;;;-128.00;-1.00;-1.00;101831;1251;1012793;-64
2023/02/01 16:05:26;;;;;;;6.30;5.70;;;;;;;-128.00;-1.00;-1.00;101834;1251;1012825;-62
2023/02/01 16:07:56;;;;;;;6.80;5.90;;;;;;;-128.00;-1.00;-1.00;101855;1251;1009773;-64
2023/02/01 16:10:26;;;;;;;6.50;5.90;;;;;;;-128.00;-1.00;-1.00;101995;1253;1012890;-63
2023/02/01 16:12:57;;;;;;;7.50;5.50;;;;;;;-128.00;-1.00;-1.00;101963;1254;1013193;-64
2023/02/01 16:15:24;;;;;;;7.40;6.10;;;;;;;-128.00;-1.00;-1.00;101892;1251;1013080;-64
2023/02/01 16:17:52;;;;;;;6.70;5.60;;;;;;;-128.00;-1.00;-1.00;102183;1251;1002575;-64
2023/02/01 16:20:19;;;;;;;5.50;5.00;;;;;;;-128.00;-1.00;-1.00;101992;1251;1002493;-64
2023/02/01 16:22:46;;;;;;;7.70;5.30;;;;;;;-128.00;-1.00;-1.00;101767;1251;1002382;-65
2023/02/01 16:25:13;;;;;;;6.40;5.30;;;;;;;-128.00;-1.00;-1.00;101920;1251;1002748;-63
2023/02/01 16:27:40;;;;;;;;;;;;;;;-128.00;-1.00;-1.00;101881;1251;1003733;-64
2023/02/01 16:30:09;;;;;;;8.40;4.90;;;;;;;-128.00;-1.00;-1.00;102066;1254;1004210;-62
2023/02/01 16:32:39;;;;;;;6.50;5.40;;;;;;;-128.00;-1.00;-1.00;102046;1257;1010016;-63
2023/02/01 16:35:20;;;;;;;7.80;4.70;;;;;;;-128.00;-1.00;-1.00;102271;1251;1011548;-63
2023/02/01 16:37:48;;;;;;;8.40;6.00;;;;;;;-128.00;-1.00;-1.00;102189;1251;1012765;-62
2023/02/01 16:40:15;;;;;;;8.50;6.00;;;;;;;-128.00;-1.00;-1.00;101916;1254;1003591;-63
2023/02/01 16:42:42;;;;;;;11.00;9.70;;;;;;;-128.00;-1.00;-1.00;101928;1251;1002918;-62
2023/02/01 16:45:10;;;;;;;12.50;11.10;;;;;;;-128.00;-1.00;-1.00;102056;1253;1003200;-63
2023/02/01 16:47:38;;;;;;;18.70;16.70;;;;;;;-128.00;-1.00;-1.00;102172;1253;1002666;-67
2023/02/01 16:50:14;;;;;;;19.60;17.80;;;;;;;-128.00;-1.00;-1.00;102217;1251;1012332;-65
2023/02/01 16:52:50;;;;;;;13.10;11.90;;;;;;;-128.00;-1.00;-1.00;101996;1251;1012878;-63
2023/02/01 16:55:19;;;;;;;10.30;8.40;;;;;;;-128.00;-1.00;-1.00;102467;1254;1002460;-66
2023/02/01 16:57:48;;;;;;;13.40;7.00;;;;;;;-128.00;-1.00;-1.00;101859;1258;1010806;-64
2023/02/01 17:00:15;;;;;;;7.50;6.40;;;;;;;-128.00;-1.00;-1.00;101813;1256;1003585;-63
2023/02/01 17:02:53;;;;;;;7.60;6.20;;;;;;;-128.00;-1.00;-1.00;101958;1251;1014034;-65
2023/02/01 17:05:20;;;;;;;8.50;5.80;;;;;;;-128.00;-1.00;-1.00;101833;1251;1016423;-65
2023/02/01 17:07:49;;;;;;;7.20;6.50;;;;;;;-128.00;-1.00;-1.00;101974;1251;1002882;-67
2023/02/01 17:10:25;;;;;;;8.90;7.30;;;;;;;-128.00;-1.00;-1.00;101923;1254;1002723;-62
2023/02/01 17:13:01;;;;;;;11.00;7.80;;;;;;;-128.00;-1.00;-1.00;102200;1251;1011748;-64
2023/02/01 17:15:33;;;;;;;8.60;7.10;;;;;;;-128.00;-1.00;-1.00;101987;1251;1003788;-62
2023/02/01 17:18:02;;;;;;;8.50;7.40;;;;;;;-128.00;-1.00;-1.00;101939;1251;1012268;-64
2023/02/01 17:20:31;;;;;;;8.90;7.20;;;;;;;-128.00;-1.00;-1.00;101912;1251;1013270;-66
2023/02/01 17:22:58;;;;;;;7.40;6.40;;;;;;;-128.00;-1.00;-1.00;101895;1251;1010356;-63
2023/02/01 17:25:26;;;;;;;8.40;6.30;;;;;;;-128.00;-1.00;-1.00;101818;1251;1003683;-64
2023/02/01 17:27:53;;;;;;;6.80;6.10;;;;;;;-128.00;-1.00;-1.00;102015;1251;1016060;-63
2023/02/01 17:30:21;;;;;;;9.90;5.80;;;;;;;-128.00;-1.00;-1.00;101982;1251;1002772;-64
2023/02/01 17:32:48;;;;;;;10.60;6.50;;;;;;;-128.00;-1.00;-1.00;101964;1251;1004527;-64
2023/02/01 17:35:20;;;;;;;6.80;5.60;;;;;;;-128.00;-1.00;-1.00;102395;1251;1003393;-64
2023/02/01 17:37:50;;;;;;;6.80;5.60;;;;;;;-128.00;-1.00;-1.00;101966;1251;1011021;-67
2023/02/01 17:40:17;;;;;;;7.90;6.10;;;;;;;-128.00;-1.00;-1.00;102017;1251;1002861;-68
2023/02/01 17:42:44;;;;;;;7.20;6.00;;;;;;;-128.00;-1.00;-1.00;102017;1251;1002375;-70
2023/02/01 17:45:36;;;;;;;7.00;6.00;;;;;;;-128.00;-1.00;-1.00;102168;1251;1003629;-69
2023/02/01 17:48:05;;;;;;;6.80;5.50;;;;;;;-128.00;-1.00;-1.00;102077;1258;1010909;-67
2023/02/01 17:50:35;;;;;;;7.90;5.50;;;;;;;-128.00;-1.00;-1.00;101912;1251;1011696;-67
2023/02/01 17:53:04;;;;;;;8.20;5.70;;;;;;;-128.00;-1.00;-1.00;101908;1251;1013183;-66
2023/02/01 17:55:32;;;;;;;7.50;5.80;;;;;;;-128.00;-1.00;-1.00;101848;1256;1013368;-66
2023/02/01 17:58:00;;;;;;;7.70;5.80;;;;;;;-128.00;-1.00;-1.00;101904;1253;1012615;-63
2023/02/01 18:00:28;;;;;;;7.90;6.10;;;;;;;-128.00;-1.00;-1.00;102243;1251;1002941;-65
2023/02/01 18:02:56;;;;;;;6.20;5.60;;;;;;;-128.00;-1.00;-1.00;102206;1251;1004312;-64
2023/02/01 18:05:26;;;;;;;8.90;7.00;;;;;;;-128.00;-1.00;-1.00;102005;1254;1004406;-64
2023/02/01 18:07:58;;;;;;;10.80;7.30;;;;;;;-128.00;-1.00;-1.00;102154;1254;1013475;-65